Time;durP1;ratioP1;P1;durP2;ratioP2;P2;SDS_P1;SDS_P2;PMS_P1;PMS_P2;Temp;Humidity;BMP_temperature;BMP_pressure;BME280_temperature;BME280_humidity;BME280_pressure;Samples;Min_cycle;Max_cycle;Signal;HPM_P1;HPM_P2
2021/12/24 00:00:36;;;;;;;33.63;21.47;;;4.50;99.90;;;5.20;100.00;-19903.94;5072366;28;20264;-65
2021/12/24 00:03:06;;;;;;;32.93;22.30;;;4.50;99.90;;;5.38;100.00;-19910.06;5072259;28;20207;-65
2021/12/24 00:05:36;;;;;;;33.60;22.50;;;4.60;99.90;;;5.33;100.00;-19908.38;5073232;28;20189;-66
2021/12/24 00:08:06;;;;;;;35.13;21.80;;;4.60;99.90;;;5.47;100.00;-19913.16;5072598;28;20614;-66
2021/12/24 00:10:36;;;;;;;36.17;22.80;;;4.60;99.90;;;5.43;100.00;-19911.63;5067713;28;20321;-66
2021/12/24 00:13:09;;;;;;;35.27;22.47;;;4.60;99.90;;;5.30;100.00;-19907.34;5071645;28;20849;-66
2021/12/24 00:18:34;;;;;;;39.67;22.67;;;4.60;99.90;;;5.62;100.00;-19918.13;5069493;28;20223;-66
2021/12/24 00:35:14;;;;;;;35.43;21.83;;;4.90;99.90;;;5.70;100.00;-19920.84;5073794;28;20244;-67
2021/12/24 00:37:45;;;;;;;32.33;21.57;;;4.90;99.90;;;5.77;100.00;-19923.41;5068205;28;20266;-67
2021/12/24 00:40:18;;;;;;;32.30;20.93;;;5.00;99.90;;;5.76;100.00;-19923.06;5065783;28;20239;-67
2021/12/24 00:42:50;;;;;;;32.57;21.73;;;5.00;99.90;;;5.87;100.00;-19926.66;5066545;28;20204;-67
2021/12/24 00:45:22;;;;;;;35.13;21.00;;;5.00;99.90;;;5.96;100.00;-19929.75;5073755;28;20294;-68
2021/12/24 00:47:52;;;;;;;34.00;22.20;;;5.00;99.90;;;5.88;100.00;-19927.19;5072210;28;20235;-69
2021/12/24 00:50:29;;;;;;;33.67;21.63;;;5.00;99.90;;;6.01;100.00;-19931.63;5065379;28;20239;-69
2021/12/24 00:53:02;;;;;;;29.07;19.83;;;5.10;99.90;;;5.91;100.00;-19928.22;5068936;28;20251;-69
2021/12/24 00:55:32;;;;;;;28.83;19.83;;;5.10;99.90;;;5.96;100.00;-19929.75;5076872;28;20242;-70
2021/12/24 00:58:04;;;;;;;29.97;19.07;;;5.10;99.90;;;5.82;100.00;-19925.13;5078274;28;20222;-69
2021/12/24 01:00:36;;;;;;;30.93;19.57;;;5.10;99.90;;;5.84;100.00;-19925.63;5077559;28;20199;-69
2021/12/24 01:03:09;;;;;;;26.67;18.10;;;5.00;99.90;;;5.85;100.00;-19925.97;5071045;28;20205;-69
2021/12/24 01:05:41;;;;;;;26.97;18.03;;;5.10;99.90;;;5.77;100.00;-19923.25;5060047;28;20716;-69
2021/12/24 01:08:12;;;;;;;27.73;18.03;;;5.10;99.90;;;5.92;100.00;-19928.38;5063825;28;20236;-70
2021/12/24 01:10:45;;;;;;;26.70;17.27;;;5.10;99.90;;;5.96;100.00;-19929.75;5065297;28;20547;-69
2021/12/24 01:13:14;;;;;;;26.23;17.43;;;5.10;99.90;;;5.88;100.00;-19927.00;5074056;28;20991;-68
2021/12/24 01:15:53;;;;;;;26.00;16.73;;;5.10;99.90;;;5.85;100.00;-19925.97;5074289;28;20576;-68
2021/12/24 01:18:30;;;;;;;24.43;16.37;;;5.10;99.90;;;5.86;100.00;-19926.31;5074132;28;20667;-68
2021/12/24 01:21:15;;;;;;;24.30;16.40;;;5.10;99.90;;;6.04;100.00;-19932.47;5073963;28;20226;-68
2021/12/24 01:23:49;;;;;;;20.70;15.67;;;5.10;99.90;;;5.96;100.00;-19929.75;5066184;28;20204;-68
2021/12/24 01:26:23;;;;;;;23.23;15.97;;;5.10;99.90;;;5.99;100.00;-19930.94;5067443;28;20219;-68
2021/12/24 01:29:19;;;;;;;24.77;15.07;;;5.20;99.90;;;6.22;100.00;-19938.78;5065358;28;20660;-68
2021/12/24 01:40:37;;;;;;;21.07;15.50;;;5.30;99.90;;;6.20;100.00;-19937.94;5004714;28;20213;-69
2021/12/24 01:43:05;;;;;;;20.07;15.27;;;5.30;99.90;;;6.24;100.00;-19939.16;5004896;28;20229;-68
2021/12/24 01:45:37;;;;;;;22.97;15.77;;;5.40;99.90;;;6.18;100.00;-19937.44;5045058;28;20272;-70
2021/12/24 01:48:08;;;;;;;24.83;17.23;;;5.40;99.90;;;6.29;100.00;-19941.03;5073945;28;20181;-68
2021/12/24 01:50:42;;;;;;;21.63;16.37;;;5.40;99.90;;;6.28;100.00;-19940.69;5069250;28;20224;-69
2021/12/24 01:53:12;;;;;;;24.13;17.00;;;5.50;99.90;;;6.34;100.00;-19942.56;5060514;28;20601;-68
2021/12/24 01:55:41;;;;;;;23.63;16.17;;;5.50;99.90;;;6.39;100.00;-19944.44;5069262;28;20207;-69
2021/12/24 01:58:10;;;;;;;24.43;17.03;;;5.60;99.90;;;6.38;100.00;-19944.09;5069457;28;20221;-69
2021/12/24 02:00:43;;;;;;;22.37;16.63;;;5.60;99.90;;;6.38;100.00;-19944.09;5059634;28;20385;-70
2021/12/24 02:03:13;;;;;;;22.00;15.70;;;5.60;99.90;;;6.51;100.00;-19948.38;5062093;28;20219;-70
2021/12/24 02:05:42;;;;;;;20.67;15.10;;;5.60;99.90;;;6.42;100.00;-19945.28;5054066;28;20573;-69
2021/12/24 02:08:15;;;;;;;21.17;15.10;;;5.80;99.90;;;6.49;100.00;-19947.69;5066954;28;20660;-66
2021/12/24 02:10:45;;;;;;;22.37;16.67;;;5.70;99.90;;;6.43;100.00;-19945.81;5061069;28;20700;-66
2021/12/24 02:13:14;;;;;;;23.27;16.70;;;5.70;99.90;;;6.43;100.00;-19945.81;5069031;28;20312;-66
2021/12/24 02:15:59;;;;;;;23.10;16.30;;;5.60;99.90;;;6.37;100.00;-19943.75;5066812;28;20554;-65
2021/12/24 02:28:14;;;;;;;20.77;15.87;;;5.60;99.90;;;6.53;100.00;-19949.22;5057222;28;20302;-65
2021/12/24 02:29:47;;;;;;;20.80;15.87;;;5.70;99.90;;;6.58;100.00;-19950.94;5067295;28;20232;-65
2021/12/24 02:32:15;;;;;;;20.90;15.87;;;5.80;99.90;;;6.55;100.00;-19949.91;5068997;28;20728;-65
2021/12/24 02:34:43;;;;;;;19.70;14.90;;;5.80;99.90;;;6.60;100.00;-19951.44;5066221;28;20932;-65
2021/12/24 02:37:14;;;;;;;18.53;14.37;;;5.80;99.90;;;6.55;100.00;-19949.91;5070233;28;20240;-64
2021/12/24 02:39:42;;;;;;;19.93;15.87;;;5.80;99.90;;;6.58;100.00;-19950.75;5066569;28;20603;-66
2021/12/24 02:42:15;;;;;;;18.90;15.53;;;5.70;99.90;;;6.61;100.00;-19951.78;5065635;28;20290;-65
2021/12/24 02:44:46;;;;;;;21.10;16.37;;;5.80;99.90;;;6.62;100.00;-19952.31;5063512;28;20633;-65
2021/12/24 02:47:37;;;;;;;21.37;16.73;;;5.80;99.90;;;6.55;100.00;-19949.72;5063480;28;20684;-64
2021/12/24 02:55:39;;;;;;;21.50;16.70;;;5.80;99.90;;;6.54;100.00;-19949.41;5038879;28;20241;-65
2021/12/24 02:58:07;;;;;;;21.63;17.17;;;5.80;99.90;;;6.69;100.00;-19954.53;5044860;28;20319;-65
2021/12/24 03:00:35;;;;;;;23.37;17.17;;;5.80;99.90;;;6.71;100.00;-19955.22;5047413;28;20297;-63
2021/12/24 03:03:04;;;;;;;21.80;16.90;;;5.90;99.90;;;6.68;100.00;-19954.34;5047624;28;20244;-63
2021/12/24 03:05:32;;;;;;;22.60;16.73;;;5.90;99.90;;;6.75;100.00;-19956.56;5040124;28;20237;-64
2021/12/24 03:08:01;;;;;;;21.47;15.93;;;5.90;99.90;;;6.84;100.00;-19959.66;5047883;28;20318;-63
2021/12/24 03:10:29;;;;;;;20.73;15.70;;;6.00;99.90;;;6.87;100.00;-19960.84;5038124;28;20323;-64
2021/12/24 03:12:58;;;;;;;18.70;15.57;;;6.00;99.90;;;6.78;100.00;-19957.59;5047806;28;20230;-64
2021/12/24 03:15:26;;;;;;;20.80;16.83;;;6.00;99.90;;;6.78;100.00;-19957.75;5047296;28;20205;-64
2021/12/24 03:17:58;;;;;;;20.10;15.83;;;6.00;99.90;;;6.64;100.00;-19952.81;5047768;28;20208;-64
2021/12/24 03:20:32;;;;;;;19.30;15.03;;;5.90;99.90;;;6.62;100.00;-19952.31;5047265;28;20588;-64
2021/12/24 03:23:10;;;;;;;22.10;16.03;;;5.90;99.90;;;6.64;100.00;-19952.81;5047512;28;20531;-65
2021/12/24 03:25:38;;;;;;;19.70;16.33;;;5.90;99.90;;;6.74;100.00;-19956.22;5048407;28;20215;-64
2021/12/24 03:28:07;;;;;;;21.40;15.37;;;6.00;99.90;;;6.82;100.00;-19959.13;5048799;28;20209;-65
2021/12/24 03:30:35;;;;;;;21.13;14.97;;;6.00;99.90;;;6.82;100.00;-19959.13;5048415;28;20291;-65
2021/12/24 03:33:03;;;;;;;20.23;15.03;;;6.00;99.90;;;6.71;100.00;-19955.38;5048352;28;20240;-64
2021/12/24 03:35:32;;;;;;;21.23;15.60;;;5.90;99.90;;;6.82;100.00;-19959.13;5048581;28;20205;-64
2021/12/24 03:38:02;;;;;;;20.80;15.57;;;5.90;99.90;;;6.95;100.00;-19963.41;5048474;28;20685;-65
2021/12/24 03:40:30;;;;;;;20.00;15.27;;;6.00;99.90;;;6.91;100.00;-19962.03;5047917;28;20197;-64
2021/12/24 03:42:58;;;;;;;22.50;16.33;;;6.00;99.90;;;6.86;100.00;-19960.34;5040846;28;20297;-65
2021/12/24 03:45:31;;;;;;;19.37;14.93;;;6.00;99.90;;;6.81;100.00;-19958.63;5048057;28;20203;-65
2021/12/24 03:48:02;;;;;;;19.67;15.57;;;6.00;99.90;;;6.80;100.00;-19958.28;5041290;28;20725;-65
2021/12/24 03:50:46;;;;;;;21.90;16.90;;;6.00;99.90;;;6.81;100.00;-19958.63;5047843;28;20287;-64
2021/12/24 03:56:01;;;;;;;21.67;16.23;;;5.90;99.90;;;6.76;100.00;-19956.91;5040563;28;20213;-64
2021/12/24 03:58:29;;;;;;;21.37;16.53;;;6.00;99.90;;;6.85;100.00;-19960.00;5039583;28;20711;-64
2021/12/24 04:00:58;;;;;;;20.17;15.60;;;6.00;99.90;;;6.87;100.00;-19960.84;5047779;28;20308;-64
2021/12/24 04:03:26;;;;;;;19.57;14.97;;;6.00;99.90;;;6.67;100.00;-19953.84;5047889;28;20343;-64
2021/12/24 04:05:57;;;;;;;21.53;16.13;;;5.90;99.90;;;6.80;100.00;-19958.44;5039651;28;20244;-63
2021/12/24 04:08:27;;;;;;;20.80;15.63;;;6.00;99.90;;;6.92;100.00;-19962.38;5040363;28;20310;-64
2021/12/24 04:10:55;;;;;;;21.30;16.07;;;6.10;99.90;;;7.06;100.00;-19967.16;5046980;28;20283;-65
2021/12/24 04:13:24;;;;;;;22.43;16.93;;;6.10;99.90;;;6.92;100.00;-19962.38;5047545;28;20292;-65
2021/12/24 04:15:52;;;;;;;20.47;16.40;;;6.10;99.90;;;6.87;100.00;-19960.84;5047560;28;20205;-64
2021/12/24 04:18:34;;;;;;;23.30;18.17;;;6.10;99.90;;;6.87;100.00;-19960.66;5047599;28;20654;-64
2021/12/24 04:26:40;;;;;;;22.37;17.53;;;6.10;99.90;;;6.90;100.00;-19961.69;5051143;28;20205;-65
2021/12/24 04:29:09;;;;;;;25.63;17.43;;;6.10;99.90;;;6.97;100.00;-19964.09;5044507;28;20688;-64
2021/12/24 04:31:43;;;;;;;22.20;16.47;;;6.10;99.90;;;6.98;100.00;-19964.44;5051154;28;20241;-64
2021/12/24 04:34:13;;;;;;;20.43;16.73;;;6.10;99.90;;;7.01;100.00;-19965.63;5051192;28;20197;-64
2021/12/24 04:37:08;;;;;;;20.20;15.63;;;6.10;99.90;;;6.98;100.00;-19964.59;5050932;28;20228;-65
2021/12/24 04:39:48;;;;;;;19.20;15.90;;;6.10;99.90;;;7.09;100.00;-19968.38;5040684;28;20312;-64
2021/12/24 05:01:16;;;;;;;18.03;14.13;;;6.40;99.90;;;7.29;100.00;-19975.19;5034015;28;20367;-65
2021/12/24 05:02:03;;;;;;;16.97;14.43;;;6.50;99.90;;;7.38;100.00;-19978.28;5054232;28;20229;-63
2021/12/24 05:04:34;;;;;;;19.00;14.27;;;6.50;99.90;;;7.41;100.00;-19979.31;5054438;28;20186;-64
2021/12/24 05:07:11;;;;;;;18.70;14.73;;;6.50;99.90;;;7.54;100.00;-19983.56;5054261;28;20607;-63
2021/12/24 05:09:40;;;;;;;21.43;15.57;;;6.60;99.90;;;7.58;100.00;-19984.78;5054437;28;20247;-64
2021/12/24 05:12:11;;;;;;;23.30;16.83;;;6.70;99.90;;;7.55;100.00;-19983.91;5053823;28;20202;-64
2021/12/24 05:14:39;;;;;;;23.87;17.37;;;6.70;99.90;;;7.47;100.00;-19981.00;5048301;28;20190;-65
2021/12/24 05:17:23;;;;;;;21.50;15.93;;;6.70;99.90;;;7.60;100.00;-19985.44;5048962;28;20205;-66
2021/12/24 05:22:36;;;;;;;27.07;17.83;;;6.70;99.90;;;7.62;100.00;-19986.13;5054090;28;20202;-65
2021/12/24 05:25:06;;;;;;;26.60;18.93;;;6.80;99.90;;;7.59;100.00;-19985.09;5054026;28;20248;-65
2021/12/24 05:27:36;;;;;;;25.17;18.10;;;6.80;99.90;;;7.47;100.00;-19981.19;5053685;28;20744;-65
2021/12/24 05:30:07;;;;;;;23.50;17.33;;;6.70;99.90;;;7.61;100.00;-19985.78;5053700;28;20182;-65
2021/12/24 05:32:37;;;;;;;26.33;18.33;;;6.70;99.90;;;7.51;100.00;-19982.38;5052925;28;20193;-65
2021/12/24 05:35:06;;;;;;;28.70;19.03;;;6.80;99.90;;;7.51;100.00;-19982.53;5054135;28;20198;-66
2021/12/24 05:37:34;;;;;;;24.37;18.83;;;6.70;99.90;;;7.71;100.00;-19989.22;5053923;28;20233;-66
2021/12/24 05:40:02;;;;;;;24.13;18.00;;;6.80;99.90;;;7.65;100.00;-19987.16;5053846;28;20314;-65
2021/12/24 05:42:31;;;;;;;24.70;18.80;;;6.80;99.90;;;7.76;100.00;-19990.91;5053436;28;20260;-65
2021/12/24 05:45:04;;;;;;;28.00;19.27;;;6.90;99.90;;;7.74;100.00;-19990.22;5053526;28;20259;-64
2021/12/24 05:47:33;;;;;;;27.30;19.30;;;6.90;99.90;;;7.70;100.00;-19988.88;5033758;28;20179;-65
2021/12/24 05:50:01;;;;;;;27.57;20.03;;;6.90;99.90;;;7.74;100.00;-19990.41;5033672;28;20266;-65
2021/12/24 05:52:30;;;;;;;25.23;17.57;;;6.90;99.90;;;7.70;100.00;-19988.88;5033715;28;20240;-64
2021/12/24 05:54:58;;;;;;;24.07;18.93;;;6.90;99.90;;;7.77;100.00;-19991.44;5033859;28;20226;-65
2021/12/24 05:57:27;;;;;;;25.57;18.67;;;6.90;99.90;;;7.78;100.00;-19991.78;5032958;28;20305;-65
2021/12/24 05:59:55;;;;;;;23.63;17.80;;;6.90;99.90;;;7.82;100.00;-19993.13;5032241;28;20257;-65
2021/12/24 06:02:24;;;;;;;25.57;17.97;;;7.00;99.90;;;7.87;100.00;-19994.84;5032972;28;20293;-65
2021/12/24 06:04:53;;;;;;;24.30;17.70;;;7.00;99.90;;;7.85;100.00;-19994.00;5035325;28;20256;-65
2021/12/24 06:07:21;;;;;;;23.20;16.90;;;7.00;99.90;;;7.76;100.00;-19990.91;5053534;28;20229;-65
2021/12/24 06:09:49;;;;;;;22.33;17.33;;;7.00;99.90;;;7.81;100.00;-19992.63;5037504;28;20227;-65
2021/12/24 06:12:17;;;;;;;23.43;17.03;;;7.00;99.90;;;7.82;100.00;-19993.13;5043626;28;20233;-64
2021/12/24 06:14:52;;;;;;;21.13;16.30;;;7.00;99.90;;;7.88;100.00;-19995.03;5048910;28;20201;-65
2021/12/24 06:17:23;;;;;;;21.43;16.50;;;7.10;99.90;;;7.90;100.00;-19995.88;5049402;28;20213;-65
2021/12/24 06:19:52;;;;;;;22.17;16.00;;;7.10;99.90;;;8.00;100.00;-19999.28;5046760;28;20223;-65
2021/12/24 06:22:20;;;;;;;20.90;15.83;;;7.10;99.90;;;8.02;100.00;-19999.97;5042748;28;20306;-65
2021/12/24 06:24:49;;;;;;;22.00;16.03;;;7.10;99.90;;;8.07;100.00;-20001.50;5048396;28;20598;-65
2021/12/24 06:27:17;;;;;;;21.20;14.73;;;7.20;99.90;;;8.00;100.00;-19999.13;5048670;28;20697;-66
2021/12/24 06:29:45;;;;;;;20.07;15.57;;;7.20;99.90;;;8.04;100.00;-20000.47;5048662;28;20205;-65
2021/12/24 06:32:13;;;;;;;19.50;15.47;;;7.20;99.90;;;8.09;100.00;-20002.19;5048387;28;20264;-65
2021/12/24 06:34:41;;;;;;;19.53;15.10;;;7.20;99.90;;;7.95;100.00;-19997.41;5048440;28;20198;-66
2021/12/24 06:37:11;;;;;;;19.63;15.90;;;7.20;99.90;;;8.21;100.00;-20006.47;5049054;28;20568;-65
2021/12/24 06:39:39;;;;;;;21.23;15.27;;;7.30;99.90;;;8.20;100.00;-20005.97;5048543;28;20217;-65
2021/12/24 06:42:08;;;;;;;18.10;14.00;;;7.20;99.90;;;8.21;100.00;-20006.28;5038485;28;20233;-66
2021/12/24 06:44:36;;;;;;;16.83;13.73;;;7.30;99.90;;;8.15;100.00;-20004.25;5048215;28;20672;-66
2021/12/24 06:47:05;;;;;;;20.47;15.80;;;7.40;99.90;;;8.05;100.00;-20000.84;5042084;28;20300;-66
2021/12/24 06:49:34;;;;;;;18.53;15.10;;;7.30;99.90;;;8.18;100.00;-20005.44;5048666;28;20197;-65
2021/12/24 06:52:03;;;;;;;20.67;15.80;;;7.30;99.90;;;7.99;100.00;-19998.78;5047196;28;20266;-66
2021/12/24 06:54:33;;;;;;;19.37;16.10;;;7.30;99.90;;;7.97;100.00;-19998.09;5047982;28;20780;-67
2021/12/24 06:57:01;;;;;;;17.73;14.90;;;7.20;99.90;;;8.21;100.00;-20006.28;5048165;28;20225;-67
2021/12/24 06:59:30;;;;;;;20.17;15.00;;;7.30;99.90;;;8.00;100.00;-19999.28;5048442;28;20202;-66
2021/12/24 07:01:59;;;;;;;19.33;14.60;;;7.20;99.90;;;8.09;100.00;-20002.19;5048015;28;20372;-66
2021/12/24 07:04:27;;;;;;;15.87;12.63;;;7.20;99.90;;;8.04;100.00;-20000.47;5043899;28;20225;-66
2021/12/24 07:06:55;;;;;;;14.33;12.27;;;7.30;99.90;;;7.99;100.00;-19998.78;5048967;28;20208;-68
2021/12/24 07:09:23;;;;;;;16.33;12.53;;;7.20;99.90;;;7.86;100.00;-19994.34;5042699;28;20252;-68
2021/12/24 07:11:53;;;;;;;16.70;12.60;;;7.20;99.90;;;7.98;100.00;-19998.44;5032906;28;20767;-68
2021/12/24 07:14:22;;;;;;;13.97;11.87;;;7.10;99.90;;;7.97;100.00;-19998.25;5046909;28;20734;-67
2021/12/24 07:16:51;;;;;;;14.70;12.20;;;7.20;99.90;;;8.05;100.00;-20001.00;5043039;28;20308;-68
2021/12/24 07:19:19;;;;;;;13.13;11.00;;;7.20;99.90;;;8.08;100.00;-20001.84;5040828;28;20293;-68
2021/12/24 07:21:47;;;;;;;14.10;11.07;;;7.30;99.90;;;8.09;100.00;-20002.19;5049735;28;20279;-68
2021/12/24 07:24:15;;;;;;;12.90;10.87;;;7.30;99.90;;;8.20;100.00;-20005.97;5041437;28;20292;-68
2021/12/24 07:26:43;;;;;;;12.20;9.70;;;7.40;99.90;;;8.15;100.00;-20004.25;5041396;28;20225;-68
2021/12/24 07:29:13;;;;;;;12.73;9.13;;;7.30;99.90;;;8.33;100.00;-20010.56;5043042;28;20293;-68
2021/12/24 07:31:41;;;;;;;11.10;9.67;;;7.40;99.90;;;8.45;100.00;-20014.69;5047709;28;20221;-68
2021/12/24 07:34:09;;;;;;;10.50;8.97;;;7.60;99.90;;;8.43;100.00;-20013.81;5046320;28;20201;-69
2021/12/24 07:36:38;;;;;;;11.27;8.70;;;7.60;99.90;;;8.40;100.00;-20012.97;5049733;28;20198;-67
2021/12/24 07:39:06;;;;;;;10.47;8.33;;;7.60;99.90;;;8.48;100.00;-20015.53;5043934;28;20244;-67
2021/12/24 07:41:34;;;;;;;10.83;9.47;;;7.70;99.90;;;8.44;100.00;-20014.16;5049485;28;20221;-68
2021/12/24 07:44:02;;;;;;;11.53;8.63;;;7.60;99.90;;;8.51;100.00;-20016.56;5044152;28;20229;-68
2021/12/24 07:46:38;;;;;;;10.67;8.83;;;7.70;99.90;;;8.54;100.00;-20017.75;5048654;28;20229;-68
2021/12/24 07:49:19;;;;;;;9.47;8.47;;;7.70;99.90;;;8.57;100.00;-20018.78;5036233;28;20258;-68
2021/12/24 07:52:00;;;;;;;9.77;8.43;;;7.80;99.90;;;8.61;100.00;-20019.97;5049987;28;20375;-68
2021/12/24 07:54:29;;;;;;;11.97;10.13;;;7.80;99.90;;;8.65;100.00;-20021.34;5048868;28;20696;-67
2021/12/24 07:56:59;;;;;;;10.67;9.57;;;7.80;99.90;;;8.63;100.00;-20020.66;5049689;28;20202;-66
2021/12/24 07:59:38;;;;;;;9.37;7.70;;;7.80;99.90;;;8.55;100.00;-20018.09;5041910;28;20194;-64
2021/12/24 08:02:14;;;;;;;10.67;9.07;;;7.80;99.90;;;8.68;100.00;-20022.34;5038926;28;20284;-65
2021/12/24 08:04:46;;;;;;;10.27;7.90;;;7.80;99.90;;;8.71;100.00;-20023.22;5050350;28;20197;-66
2021/12/24 08:07:15;;;;;;;8.73;7.60;;;7.90;99.90;;;8.81;100.00;-20026.63;5046422;28;20201;-65
2021/12/24 08:09:43;;;;;;;10.30;7.57;;;7.90;99.90;;;8.85;100.00;-20028.16;5040533;28;20292;-65
2021/12/24 08:12:13;;;;;;;9.60;7.97;;;7.90;99.90;;;8.77;100.00;-20025.44;5051319;28;20232;-65
2021/12/24 08:14:41;;;;;;;7.90;7.10;;;8.00;99.90;;;8.72;100.00;-20023.72;5051205;28;20229;-65
2021/12/24 08:17:11;;;;;;;9.57;7.43;;;8.00;99.90;;;8.81;100.00;-20026.81;5051472;28;20197;-65
2021/12/24 08:19:39;;;;;;;7.83;6.73;;;8.00;99.90;;;8.80;100.00;-20026.28;5051168;28;20648;-65
2021/12/24 08:22:10;;;;;;;7.27;6.30;;;8.00;99.90;;;9.00;100.00;-20033.28;5050933;28;20257;-65
2021/12/24 08:24:39;;;;;;;7.97;6.67;;;8.10;99.90;;;8.93;100.00;-20030.72;5051111;28;20855;-65
2021/12/24 08:27:08;;;;;;;7.37;6.67;;;8.10;99.90;;;9.04;100.00;-20034.66;5050934;28;20621;-65
2021/12/24 08:29:37;;;;;;;6.70;6.00;;;8.20;99.90;;;9.10;100.00;-20036.72;5051249;28;20233;-64
2021/12/24 08:32:07;;;;;;;7.47;6.60;;;8.20;99.90;;;9.13;100.00;-20037.72;5050765;28;20788;-65
2021/12/24 08:34:38;;;;;;;6.77;6.03;;;8.30;99.90;;;9.17;100.00;-20038.94;5050978;28;20205;-64
2021/12/24 08:37:07;;;;;;;6.43;5.50;;;8.30;99.90;;;9.19;100.00;-20039.78;5035904;28;20197;-64
2021/12/24 08:39:36;;;;;;;6.40;5.80;;;8.30;99.90;;;9.15;100.00;-20038.25;5045587;28;20289;-65
2021/12/24 08:42:05;;;;;;;6.37;5.70;;;8.30;99.90;;;9.26;100.00;-20042.19;5049534;28;20706;-65
2021/12/24 08:44:34;;;;;;;6.17;5.10;;;8.40;99.90;;;9.17;100.00;-20038.94;5045129;28;20204;-64
2021/12/24 08:47:04;;;;;;;6.87;4.83;;;8.40;99.90;;;9.15;100.00;-20038.25;5050399;28;20244;-64
2021/12/24 08:49:33;;;;;;;6.33;5.73;;;8.30;99.90;;;9.17;100.00;-20038.94;5050750;28;20204;-65
2021/12/24 08:52:04;;;;;;;7.03;5.30;;;8.30;99.90;;;9.18;100.00;-20039.44;5050606;28;20661;-65
2021/12/24 08:54:32;;;;;;;5.50;4.90;;;8.40;99.90;;;9.29;100.00;-20043.19;5050866;28;20316;-64
2021/12/24 08:57:01;;;;;;;5.50;5.00;;;8.40;99.90;;;9.31;100.00;-20043.72;5049452;28;20281;-64
2021/12/24 08:59:29;;;;;;;7.80;5.70;;;8.40;99.90;;;9.25;100.00;-20041.66;5051045;28;20228;-66
2021/12/24 09:01:58;;;;;;;6.50;5.50;;;8.40;99.90;;;9.31;100.00;-20043.88;5050699;28;20849;-67
2021/12/24 09:04:26;;;;;;;6.40;5.80;;;8.40;99.90;;;9.36;100.00;-20045.41;5051308;28;20206;-66
2021/12/24 09:06:54;;;;;;;5.73;5.13;;;8.40;99.90;;;9.54;100.00;-20051.75;5049700;28;20297;-67
2021/12/24 09:09:24;;;;;;;6.07;5.47;;;8.50;99.90;;;9.49;100.00;-20050.03;5051143;28;20204;-66
2021/12/24 09:11:52;;;;;;;5.77;5.13;;;8.50;99.90;;;9.60;100.00;-20053.63;5042538;28;20344;-66
2021/12/24 09:14:20;;;;;;;5.20;4.70;;;8.60;99.90;;;9.67;100.00;-20056.19;5046037;28;20260;-65
2021/12/24 09:16:49;;;;;;;5.27;4.77;;;8.70;99.90;;;9.79;100.00;-20060.13;5051018;28;20306;-66
2021/12/24 09:19:23;;;;;;;4.80;4.20;;;8.70;99.90;;;9.86;100.00;-20062.69;5050815;28;20293;-64
2021/12/24 09:21:55;;;;;;;5.33;4.83;;;8.80;99.90;;;9.94;100.00;-20065.06;5049985;28;20827;-65
2021/12/24 09:24:29;;;;;;;4.80;4.30;;;8.90;99.90;;;10.00;100.00;-20067.13;5050821;28;20197;-63
2021/12/24 09:26:58;;;;;;;5.20;4.10;;;9.00;99.90;;;9.99;100.00;-20066.78;5051132;28;20221;-63
2021/12/24 09:29:27;;;;;;;4.97;4.20;;;9.00;99.90;;;10.04;100.00;-20068.66;5052627;28;20639;-63
2021/12/24 09:31:56;;;;;;;5.20;3.60;;;9.00;99.90;;;10.20;100.00;-20074.13;5052918;28;20267;-64
2021/12/24 09:34:24;;;;;;;5.33;4.40;;;9.10;99.90;;;10.23;100.00;-20074.97;5053652;28;20189;-63
2021/12/24 09:36:53;;;;;;;5.17;3.87;;;9.20;99.90;;;10.32;100.00;-20078.06;5053915;28;20248;-63
2021/12/24 09:39:22;;;;;;;4.23;3.83;;;9.30;99.90;;;10.35;100.00;-20079.09;5054089;28;20216;-62
2021/12/24 09:41:51;;;;;;;4.37;3.70;;;9.30;99.90;;;10.32;100.00;-20078.06;5053646;28;20261;-64
2021/12/24 09:44:20;;;;;;;4.23;3.57;;;9.40;99.90;;;10.37;100.00;-20079.75;5054138;28;20252;-63
2021/12/24 09:46:48;;;;;;;4.13;3.40;;;9.30;99.90;;;10.40;100.00;-20080.97;5053722;28;20207;-64
2021/12/24 09:49:16;;;;;;;3.70;3.40;;;9.40;99.90;;;10.36;100.00;-20079.59;5040787;28;20202;-62
2021/12/24 09:51:50;;;;;;;4.03;3.63;;;9.40;99.90;;;10.43;100.00;-20081.81;5053792;28;20709;-64
2021/12/24 09:54:22;;;;;;;6.03;3.50;;;9.50;99.90;;;10.49;100.00;-20083.84;5053470;28;20233;-63
2021/12/24 09:56:56;;;;;;;5.17;3.87;;;9.50;99.90;;;10.50;100.00;-20084.22;5053291;28;20194;-63
2021/12/24 09:59:25;;;;;;;3.57;3.27;;;9.50;99.90;;;10.53;100.00;-20085.22;5053777;28;20189;-62
2021/12/24 10:01:56;;;;;;;3.80;3.20;;;9.50;99.90;;;10.40;100.00;-20080.78;5053098;28;20255;-63
2021/12/24 10:04:29;;;;;;;4.07;3.30;;;9.50;99.90;;;10.51;100.00;-20084.53;5053276;28;20247;-64
2021/12/24 10:07:00;;;;;;;3.50;3.20;;;9.50;99.90;;;10.42;100.00;-20081.63;5053148;28;20280;-62
2021/12/24 10:09:35;;;;;;;4.00;3.60;;;9.50;99.90;;;10.37;100.00;-20079.94;5053237;28;20280;-63
2021/12/24 10:12:09;;;;;;;4.60;3.07;;;9.50;99.90;;;10.37;100.00;-20079.75;5052870;28;20268;-63
2021/12/24 10:14:40;;;;;;;3.73;3.30;;;9.50;99.90;;;10.45;100.00;-20082.66;5047836;28;20186;-64
2021/12/24 10:17:16;;;;;;;3.47;3.17;;;9.50;99.90;;;10.41;100.00;-20081.31;5043960;28;20208;-63
2021/12/24 10:19:47;;;;;;;3.30;3.00;;;9.40;99.90;;;10.41;100.00;-20081.31;5043734;28;20598;-63
2021/12/24 10:22:17;;;;;;;3.83;3.20;;;9.40;99.90;;;10.43;100.00;-20082.00;5048499;28;20206;-64
2021/12/24 10:24:59;;;;;;;3.90;3.30;;;9.50;99.90;;;10.42;100.00;-20081.47;5052624;28;20296;-64
2021/12/24 10:27:31;;;;;;;3.97;3.20;;;9.40;99.90;;;10.33;100.00;-20078.56;5052983;28;20282;-66
2021/12/24 10:30:00;;;;;;;3.70;3.40;;;9.40;99.90;;;10.39;100.00;-20080.44;5046977;28;20186;-64
2021/12/24 10:32:28;;;;;;;4.07;3.10;;;9.50;99.90;;;10.43;100.00;-20081.81;5041673;28;20281;-64
2021/12/24 10:34:56;;;;;;;4.17;3.63;;;9.50;99.90;;;10.44;100.00;-20082.31;5042028;28;20308;-63
2021/12/24 10:37:28;;;;;;;3.20;2.90;;;9.50;99.90;;;10.46;100.00;-20083.00;5043139;28;20198;-64
2021/12/24 10:40:00;;;;;;;3.07;2.77;;;9.50;99.90;;;10.47;100.00;-20083.19;5043016;28;20241;-63
2021/12/24 10:42:33;;;;;;;4.57;3.10;;;9.50;99.90;;;10.50;100.00;-20084.38;5041455;28;20237;-63
2021/12/24 10:45:04;;;;;;;3.97;3.30;;;9.50;99.90;;;10.44;100.00;-20082.31;5041237;28;20336;-64
2021/12/24 10:47:40;;;;;;;4.30;3.27;;;9.50;99.90;;;10.44;100.00;-20082.16;5041607;28;20557;-63
2021/12/24 10:50:27;;;;;;;4.27;3.70;;;9.50;99.90;;;10.46;100.00;-20083.00;5043148;28;20232;-64
2021/12/24 10:53:14;;;;;;;3.97;3.50;;;9.50;99.90;;;10.54;100.00;-20085.75;5041881;28;20305;-65
2021/12/24 10:55:49;;;;;;;3.73;3.43;;;9.60;99.90;;;10.51;100.00;-20084.72;5042612;28;20303;-63
2021/12/24 10:58:22;;;;;;;3.87;3.40;;;9.60;99.90;;;10.64;100.00;-20089.16;5042333;28;20277;-63
2021/12/24 11:00:54;;;;;;;3.90;3.50;;;9.60;99.90;;;10.63;100.00;-20088.81;5038955;28;20712;-63
2021/12/24 11:03:26;;;;;;;4.17;3.73;;;9.60;99.90;;;10.54;100.00;-20085.75;5041600;28;20209;-62
2021/12/24 11:06:03;;;;;;;4.27;3.87;;;9.60;99.90;;;10.53;100.00;-20085.22;5042796;28;20235;-63
2021/12/24 11:08:32;;;;;;;3.93;3.53;;;9.60;99.90;;;10.36;100.00;-20079.41;5035714;28;20185;-64
2021/12/24 11:11:04;;;;;;;4.63;4.03;;;9.60;99.90;;;10.48;100.00;-20083.69;5042506;28;20299;-64
2021/12/24 11:13:39;;;;;;;3.70;3.40;;;9.60;99.90;;;10.36;100.00;-20079.59;5041526;28;20205;-64
2021/12/24 11:16:11;;;;;;;5.63;3.90;;;9.50;99.90;;;10.49;100.00;-20083.84;5040341;28;20773;-64
2021/12/24 11:18:45;;;;;;;5.43;3.83;;;9.50;99.90;;;10.46;100.00;-20082.84;5045937;28;20190;-64
2021/12/24 11:21:20;;;;;;;4.20;3.80;;;9.50;99.90;;;10.50;100.00;-20084.38;5052069;28;20248;-64
2021/12/24 11:23:50;;;;;;;4.30;3.90;;;9.60;99.90;;;10.45;100.00;-20082.50;5051882;28;20645;-64
2021/12/24 11:26:21;;;;;;;4.60;4.10;;;9.50;99.90;;;10.47;100.00;-20083.19;5045851;28;20222;-65
2021/12/24 11:28:51;;;;;;;5.20;4.10;;;9.50;99.90;;;10.57;100.00;-20086.75;5042992;28;20729;-63
2021/12/24 11:31:23;;;;;;;6.17;4.23;;;9.60;99.90;;;10.56;100.00;-20086.25;5051304;28;20293;-63
2021/12/24 11:33:53;;;;;;;5.13;3.93;;;9.60;99.90;;;10.60;100.00;-20087.63;5052040;28;20197;-63